Latest Coastal Weather Observations for Learmonth

IDW60701

Issued at 4:03 am WST Saturday 1 October 2016 (issued every 10 minutes, with the page automatically refreshed every 10 minutes)

About coastal observations | Map of coastal stations | Coastal observations for WA | Marine services | Other Formats
Station Details ID: 005007 Name: LEARMONTH AIRPORT Lat: -22.24 Lon: 114.10 Height: 5.0 m
Data from the previous 72 hours. | See also: Recent months at Learmonth
Date/Time
WST
Temp
°C
Wind Pressure Rain since
9am
mm
Weather Cloud Vis
km
Sea
Height
m
Swell
Dir  Spd
kts
Gust
kts
hPa Trend Height
m
Period
s
Dir
01/03:30am 14.4 SSW 7 9 1011.7 - 0.0 - Partly cloudy 10 - - - -
01/03:00am 14.2 SSW 7 8 1011.5 - 0.0 - Mostly clear 10 - - - -
01/02:30am 14.3 SSW 8 9 1011.5 - 0.0 - - 10 - - - -
01/02:00am 14.7 SSW 9 11 1011.2 - 0.0 - - 10 - - - -
01/01:30am 15.1 SSW 9 11 1011.5 - 0.0 - - 10 - - - -
01/01:00am 15.3 SW 9 11 1011.7 - 0.0 - - 10 - - - -
01/12:30am 15.7 SSW 9 11 1011.7 - 0.0 - - 10 - - - -
01/12:00am 16.4 SSW 11 14 1011.6 - 0.0 - - 10 - - - -
 
Date/Time
WST
Temp
°C
Wind Pressure Rain since
9am
mm
Weather Cloud Vis
km
Sea
Height
m
Swell
Dir  Spd
kts
Gust
kts
hPa Trend Height
m
Period
s
Dir
30/11:30pm 16.8 SSW 10 13 1012.0 - 0.0 - - 10 - - - -
30/11:00pm 17.4 SSW 11 14 1011.8 - 0.0 - - 10 - - - -
30/10:30pm 18.2 SSW 14 17 1011.6 - 0.0 - - 10 - - - -
30/10:00pm 18.4 SW 13 17 1011.6 - 0.0 - - 10 - - - -
30/09:30pm 18.7 SW 15 21 1011.3 - 0.0 - - 10 - - - -
30/09:00pm 18.8 SW 15 19 1011.1 - 0.0 - - 10 - - - -
30/08:30pm 19.1 SW 15 20 1010.8 - 0.0 - - 10 - - - -
30/08:00pm 19.3 SW 14 19 1010.7 - 0.0 - - 10 - - - -
30/07:30pm 19.8 SW 15 19 1010.3 - 0.0 - - 10 - - - -
30/07:00pm 20.4 SSW 14 18 1009.8 - 0.0 - - 10 - - - -
30/06:30pm 21.4 SSW 16 21 1009.5 - 0.0 - - 10 - - - -
30/06:00pm 23.6 SSW 15 19 1008.9 - 0.0 - - 10 - - - -
30/05:30pm 25.3 SSW 13 17 1008.8 - 0.0 - - 10 - - - -
30/05:00pm 26.2 SSW 13 18 1008.7 - 0.0 - - 10 - - - -
30/04:30pm 27.2 S 10 12 1008.5 - 0.0 - - 10 - - - -
30/04:00pm 28.3 SSW 9 13 1008.5 - 0.0 - - 10 - - - -
30/03:30pm 26.9 NNE 5 9 1008.8 - 0.0 - - 10 - - - -
30/03:00pm 26.3 NE 9 12 1008.7 - 0.0 - - 10 - - - -
30/02:30pm 25.1 NNE 9 12 1009.0 - 0.0 - - 10 - - - -
30/02:00pm 24.7 NNE 10 13 1009.3 - 0.0 - - 10 - - - -
30/01:30pm 24.9 NNE 9 12 1009.6 - 0.0 - - 10 - - - -
30/01:00pm 25.6 ENE 10 13 1010.0 - 0.0 - - 10 - - - -
30/12:30pm 26.8 SW 7 13 1010.5 - 0.0 - - 10 - - - -
30/12:00pm 27.1 SW 6 10 1011.1 - 0.0 - - 10 - - - -
30/11:30am 25.2 E 13 16 1011.5 - 0.0 - Mostly clear 10 - - - -
30/11:00am 24.5 SSE 8 15 1012.1 - 0.0 - Mostly clear 10 - - - -
30/10:30am 23.9 SSW 9 12 1012.5 - 0.0 - Cloudy 10 - - - -
30/10:00am 22.8 S 10 15 1012.9 - 0.0 - Cloudy 10 - - - -
30/09:30am 21.6 S 9 12 1013.2 - 0.0 - Cloudy 10 - - - -
30/09:00am 21.9 S 10 13 1013.0 - 0.0 - Partly cloudy 10 - - - -
30/08:30am 20.1 S 7 12 1013.0 - 0.0 - Cloudy 10 - - - -
30/08:00am 18.6 S 9 11 1012.9 - 0.0 - Cloudy 10 - - - -
30/07:30am 18.0 SSW 8 10 1012.2 - 0.0 - Cloudy 10 - - - -
30/07:00am 17.8 SSW 7 9 1012.1 - 0.0 - Partly cloudy 10 - - - -
30/06:30am 17.5 S 10 14 1011.9 - 0.0 - Partly cloudy 10 - - - -
30/06:00am 17.5 SSW 8 11 1011.3 - 0.0 - Cloudy 10 - - - -
30/05:30am 17.7 SSW 9 12 1011.1 - 0.0 - Cloudy 10 - - - -
30/05:00am 17.9 S 8 10 1010.8 - 0.0 - Cloudy 10 - - - -
30/04:30am 18.4 S 11 16 1010.6 - 0.0 - Cloudy 10 - - - -
30/04:00am 18.7 S 13 17 1010.1 - 0.0 - Cloudy 10 - - - -
30/03:30am 18.6 SSW 10 13 1010.6 - 0.0 - Cloudy 10 - - - -
30/03:00am 18.8 SW 8 11 1011.0 - 0.0 - Cloudy 10 - - - -
30/02:30am 18.9 SSW 7 8 1011.2 - 0.0 - Cloudy 10 - - - -
30/02:00am 19.1 SW 8 10 1011.6 - 0.0 - Cloudy 10 - - - -
30/01:30am 18.9 SSW 7 9 1011.7 - 0.0 - Cloudy 10 - - - -
30/01:00am 18.9 SW 6 7 1011.9 - 0.0 - Cloudy 10 - - - -
30/12:30am 18.9 SSW 8 10 1012.0 - 0.0 - Cloudy 10 - - - -
30/12:00am 18.8 SSW 6 8 1012.3 - 0.0 - Cloudy 10 - - - -
 
Date/Time
WST
Temp
°C
Wind Pressure Rain since
9am
mm
Weather Cloud Vis
km
Sea
Height
m
Swell
Dir  Spd
kts
Gust
kts
hPa Trend Height
m
Period
s
Dir
29/11:30pm 18.8 S 6 7 1012.4 - 0.0 - Cloudy 10 - - - -
29/11:00pm 18.7 SSW 7 9 1012.8 - 0.0 - Cloudy 10 - - - -
29/10:30pm 18.5 SSW 8 10 1012.9 - 0.0 - Partly cloudy 10 - - - -
29/10:00pm 18.2 SSW 7 9 1013.1 - 0.0 - - 10 - - - -
29/09:30pm 18.5 SSW 7 8 1013.3 - 0.0 - Partly cloudy 10 - - - -
29/09:00pm 19.5 S 7 9 1012.8 - 0.0 - Partly cloudy 10 - - - -
29/08:30pm 20.7 SW 6 7 1012.7 - 0.0 - Partly cloudy 10 - - - -
29/08:00pm 22.1 SW 8 9 1012.3 - 0.0 - Partly cloudy 10 - - - -
29/07:30pm 22.9 W 9 10 1012.0 - 0.0 - Partly cloudy 10 - - - -
29/07:00pm 23.7 W 5 8 1011.7 - 0.0 - Partly cloudy 10 - - - -
29/06:30pm 24.4 NW 7 9 1011.2 - 0.0 - - 10 - - - -
29/06:00pm 25.6 N 9 13 1010.8 - 0.0 - - 10 - - - -
29/05:30pm 25.3 N 12 16 1010.7 - 0.0 - - 10 - - - -
29/05:00pm 26.2 N 17 22 1010.5 - 0.0 - - 10 - - - -
29/04:30pm 26.4 N 20 24 1010.2 - 0.0 - - 10 - - - -
29/04:00pm 26.3 NNE 17 21 1010.1 - 0.0 - - 10 - - - -
29/03:30pm 26.9 NNE 15 19 1010.1 - 0.0 - - 10 - - - -
29/03:00pm 26.5 NNE 16 20 1010.2 - 0.0 - - 10 - - - -
29/02:30pm 27.7 N 15 20 1010.6 - 0.0 - - 10 - - - -
29/02:00pm 26.8 N 14 20 1010.8 - 0.0 - - 10 - - - -
29/01:30pm 27.1 N 15 18 1011.2 - 0.0 - - 10 - - - -
29/01:00pm 26.5 N 15 20 1011.5 - 0.0 - - 10 - - - -
29/12:30pm 26.4 N 12 15 1011.8 - 0.0 - - 10 - - - -
29/12:00pm 26.3 NNE 10 14 1012.0 - 0.0 - - 10 - - - -
29/11:30am 26.0 NNE 6 9 1012.6 - 0.0 - - 10 - - - -
29/11:00am 24.3 ENE 6 8 1013.1 - 0.0 - - 10 - - - -
29/10:30am 23.7 E 5 8 1013.3 - 0.0 - - 10 - - - -
29/10:00am 24.7 E 6 8 1013.5 - 0.0 - - 10 - - - -
29/09:30am 23.4 SE 7 9 1013.8 - 0.0 - - 10 - - - -
29/09:00am 22.7 SSE 8 12 1013.9 - 0.0 - - 10 - - - -
29/08:30am 21.5 SSE 7 9 1014.0 - 0.0 - - 10 - - - -
29/08:00am 20.0 S 7 9 1013.8 - 0.0 - - 10 - - - -
29/07:30am 18.4 SSW 7 9 1013.6 - 0.0 - - 10 - - - -
29/07:00am 15.7 WSW 7 8 1013.3 - 0.0 - - 10 - - - -
29/06:30am 12.3 SW 7 9 1012.9 - 0.0 - - 10 - - - -
29/06:00am 11.7 WSW 7 9 1012.6 - 0.0 - - 10 - - - -
29/05:30am 11.5 SW 7 8 1012.5 - 0.0 - - 10 - - - -
29/05:00am 11.9 WSW 8 9 1012.5 - 0.0 - - 10 - - - -
29/04:30am 12.5 WSW 8 9 1012.4 - 0.0 - - 10 - - - -
29/04:00am 12.7 WSW 8 9 1012.5 - 0.0 - - 10 - - - -
29/03:30am 12.7 WSW 9 9 1012.4 - 0.0 - - 10 - - - -
29/03:00am 12.9 WSW 8 9 1012.3 - 0.0 - - 10 - - - -
29/02:30am 13.4 SW 7 9 1012.7 - 0.0 - - 10 - - - -
29/02:00am 13.9 SW 8 10 1012.9 - 0.0 - - 10 - - - -
29/01:30am 13.6 SW 8 9 1013.2 - 0.0 - - 10 - - - -
29/01:00am 14.8 SW 8 9 1013.4 - 0.0 - - 10 - - - -
29/12:30am 14.9 SW 8 9 1013.6 - 0.0 - - 10 - - - -
29/12:00am 15.3 SW 8 10 1013.8 - 0.0 - - 10 - - - -
 
Date/Time
WST
Temp
°C
Wind Pressure Rain since
9am
mm
Weather Cloud Vis
km
Sea
Height
m
Swell
Dir  Spd
kts
Gust
kts
hPa Trend Height
m
Period
s
Dir
28/11:30pm 15.2 SW 9 10 1014.1 - 0.0 - - 10 - - - -
28/11:00pm 15.5 SSW 10 11 1014.3 - 0.0 - - 10 - - - -
28/10:30pm 15.6 SSW 10 11 1014.3 - 0.0 - - 10 - - - -
28/10:00pm 16.3 SSW 10 11 1014.2 - 0.0 - - 10 - - - -
28/09:30pm 15.9 SSW 10 11 1014.2 - 0.0 - - 10 - - - -
28/09:00pm 16.5 SSW 10 11 1014.0 - 0.0 - - 10 - - - -
28/08:30pm 17.5 SSW 10 11 1013.9 - 0.0 - - 10 - - - -
28/08:00pm 17.3 SSW 10 11 1013.7 - 0.0 - - 10 - - - -
28/07:30pm 17.6 SSW 9 10 1013.4 - 0.0 - - 10 - - - -
28/07:00pm 18.6 SSW 9 10 1013.3 - 0.0 - - 10 - - - -
28/06:30pm 22.0 S 8 9 1013.1 - 0.0 - - 10 - - - -
28/06:00pm 25.7 S 9 12 1012.7 - 0.0 - - 10 - - - -
28/05:30pm 27.4 SSE 13 16 1012.6 - 0.0 - - 10 - - - -
28/05:00pm 28.1 SSE 15 20 1012.4 - 0.0 - - 10 - - - -
28/04:30pm 28.5 SSE 16 21 1012.2 - 0.0 - - 10 - - - -
28/04:00pm 29.0 SSE 14 20 1012.2 - 0.0 - - 10 - - - -
28/03:30pm 28.9 SSE 14 20 1012.3 - 0.0 - - 10 - - - -
28/03:00pm 28.3 SSE 13 18 1012.5 - 0.0 - - 10 - - - -
28/02:30pm 28.2 SSE 13 23 1013.0 - 0.0 - - 10 - - - -
28/02:00pm 27.5 ESE 13 21 1013.4 - 0.0 - - 10 - - - -
28/01:30pm 27.4 SE 14 20 1014.0 - 0.0 - - 10 - - - -
28/01:05pm 26.6 SSE 15 28 1014.3 - 0.0 - - 10 - - - -
28/01:00pm 26.7 SSE 16 22 1014.4 - 0.0 - - 10 - - - -
28/12:30pm 24.8 SE 16 23 1015.0 - 0.0 - - 10 - - - -
28/12:00pm 25.2 SE 17 24 1015.4 - 0.0 - - 10 - - - -
28/11:30am 24.1 SSE 17 22 1016.1 - 0.0 - - 10 - - - -
28/11:00am 23.1 SE 18 24 1016.6 - 0.0 - - 10 - - - -
28/10:30am 21.9 SE 20 26 1017.0 - 0.0 - - 10 - - - -
28/10:00am 21.3 SSE 20 27 1017.3 - 0.0 - - 10 - - - -
28/09:30am 21.1 SE 20 26 1017.4 - 0.0 - Mostly clear 10 - - - -
28/09:00am 19.6 SSE 21 28 1017.4 - 0.0 - Mostly clear 10 - - - -
28/08:30am 18.8 SSE 21 26 1017.4 - 0.0 - Mostly clear 10 - - - -
28/08:00am 17.9 SSE 22 29 1017.4 - 0.0 - Mostly clear 10 - - - -
28/07:50am 17.7 SSE 22 31 1017.2 - 0.0 - Mostly clear 10 - - - -
28/07:30am 17.0 S 16 21 1017.1 - 0.0 - Mostly clear 10 - - - -
28/07:00am 15.1 S 15 19 1016.8 - 0.0 - - 10 - - - -
28/06:30am 13.1 S 11 13 1016.5 - 0.0 - - 10 - - - -
28/06:00am 12.6 SSW 10 13 1016.1 - 0.0 - - 10 - - - -
28/05:30am 12.4 SSW 10 13 1015.8 - 0.0 - - 10 - - - -
28/05:00am 13.7 S 11 14 1015.5 - 0.0 - - 10 - - - -
28/04:30am 13.8 SSW 11 15 1015.2 - 0.0 - - 10 - - - -

Other Formats:

Comma delimited format used in spreadsheet applications
http://www.bom.gov.au/fwo/IDW60701/IDW60701.94302.axf

JavaScript Object Notation format (JSON) in row-major order
http://www.bom.gov.au/fwo/IDW60701/IDW60701.94302.json